Time;durP1;ratioP1;P1;durP2;ratioP2;P2;SDS_P1;SDS_P2;PMS_P1;PMS_P2;Temp;Humidity;BMP_temperature;BMP_pressure;BME280_temperature;BME280_humidity;BME280_pressure;Samples;Min_cycle;Max_cycle;Signal;HPM_P1;HPM_P2
2021/12/04 00:01:22;;;;;;;0.00;0.00;;;;;;;;;;4864612;29;20056;-92
2021/12/04 00:03:52;;;;;;;0.10;0.10;;;;;;;;;;4850263;29;20045;-93
2021/12/04 00:06:24;;;;;;;0.00;0.00;;;;;;;;;;4849094;29;20052;-92
2021/12/04 00:08:51;;;;;;;0.10;0.10;;;;;;;;;;4864594;29;20101;-93
2021/12/04 00:11:17;;;;;;;0.20;0.20;;;;;;;;;;4848201;29;20045;-93
2021/12/04 00:13:43;;;;;;;0.00;0.00;;;;;;;;;;4849351;29;20052;-94
2021/12/04 00:16:09;;;;;;;0.00;0.00;;;;;;;;;;4848837;29;20104;-93
2021/12/04 00:18:35;;;;;;;0.10;0.10;;;;;;;;;;4848852;29;20060;-92
2021/12/04 00:21:04;;;;;;;0.20;0.20;;;;;;;;;;4848757;29;20104;-93
2021/12/04 00:23:30;;;;;;;0.00;0.00;;;;;;;;;;4848515;29;20073;-92
2021/12/04 00:25:56;;;;;;;0.00;0.00;;;;;;;;;;4848581;29;20041;-92
2021/12/04 00:28:22;;;;;;;0.00;0.00;;;;;;;;;;4848447;29;20064;-91
2021/12/04 00:30:49;;;;;;;0.00;0.00;;;;;;;;;;4848336;29;20477;-93
2021/12/04 00:33:18;;;;;;;0.10;0.10;;;;;;;;;;4848538;29;20482;-92
2021/12/04 00:35:47;;;;;;;0.30;0.30;;;;;;;;;;4848619;29;20308;-92
2021/12/04 00:49:17;;;;;;;0.10;0.10;;;;;;;;;;4865110;29;20136;-93
2021/12/04 00:51:45;;;;;;;0.10;0.10;;;;;;;;;;4850334;29;20123;-92
2021/12/04 00:54:12;;;;;;;0.00;0.00;;;;;;;;;;4848063;29;20135;-92
2021/12/04 00:56:44;;;;;;;0.10;0.10;;;;;;;;;;4848197;29;20057;-93
2021/12/04 00:59:10;;;;;;;0.10;0.10;;;;;;;;;;4847231;29;20128;-93
2021/12/04 01:01:40;;;;;;;0.10;0.10;;;;;;;;;;4847572;29;20460;-92
2021/12/04 01:04:09;;;;;;;0.10;0.10;;;;;;;;;;4847925;29;20044;-92
2021/12/04 01:06:35;;;;;;;0.00;0.00;;;;;;;;;;4847705;29;20047;-91
2021/12/04 01:09:01;;;;;;;0.10;0.10;;;;;;;;;;4847444;29;20045;-92
2021/12/04 01:11:30;;;;;;;0.70;0.10;;;;;;;;;;4847558;29;20053;-91
2021/12/04 01:13:56;;;;;;;0.17;0.17;;;;;;;;;;4848133;29;20120;-93
2021/12/04 01:16:22;;;;;;;0.22;0.22;;;;;;;;;;4847562;29;20049;-93
2021/12/04 01:18:48;;;;;;;0.10;0.10;;;;;;;;;;4847937;29;20041;-93
2021/12/04 01:21:14;;;;;;;0.10;0.10;;;;;;;;;;4847635;29;20140;-92
2021/12/04 01:23:40;;;;;;;0.10;0.10;;;;;;;;;;4847249;29;20081;-92
2021/12/04 01:26:08;;;;;;;0.10;0.10;;;;;;;;;;4847298;29;20072;-93
2021/12/04 01:28:34;;;;;;;0.00;0.00;;;;;;;;;;4847837;29;20401;-92
2021/12/04 01:31:00;;;;;;;0.10;0.10;;;;;;;;;;4847883;29;20438;-92
2021/12/04 01:33:26;;;;;;;0.10;0.10;;;;;;;;;;4847448;29;20045;-92
2021/12/04 01:35:52;;;;;;;0.10;0.10;;;;;;;;;;4847217;29;20109;-90
2021/12/04 01:38:18;;;;;;;0.10;0.10;;;;;;;;;;4847244;29;20049;-92
2021/12/04 01:40:45;;;;;;;0.10;0.10;;;;;;;;;;4847155;29;20069;-92
2021/12/04 01:43:11;;;;;;;0.10;0.10;;;;;;;;;;4847046;29;20051;-90
2021/12/04 01:45:37;;;;;;;0.10;0.10;;;;;;;;;;4847533;29;20040;-91
2021/12/04 01:48:03;;;;;;;0.10;0.10;;;;;;;;;;4847001;29;20497;-92
2021/12/04 01:50:29;;;;;;;0.00;0.00;;;;;;;;;;4847430;29;20136;-92
2021/12/04 01:52:59;;;;;;;0.10;0.10;;;;;;;;;;4847417;29;20048;-92
2021/12/04 01:55:30;;;;;;;0.10;0.10;;;;;;;;;;4847587;29;20041;-92
2021/12/04 01:57:56;;;;;;;0.00;0.00;;;;;;;;;;4847454;29;20052;-91
2021/12/04 02:00:22;;;;;;;0.10;0.10;;;;;;;;;;4846651;29;20348;-93
2021/12/04 02:02:48;;;;;;;0.10;0.10;;;;;;;;;;4847108;29;20109;-93
2021/12/04 02:05:14;;;;;;;0.10;0.10;;;;;;;;;;4847161;29;20045;-93
2021/12/04 02:07:40;;;;;;;0.10;0.10;;;;;;;;;;4847015;29;20109;-93
2021/12/04 02:10:06;;;;;;;0.00;0.00;;;;;;;;;;4846929;29;20049;-93
2021/12/04 02:12:33;;;;;;;0.10;0.10;;;;;;;;;;4850154;29;20052;-93
2021/12/04 02:14:59;;;;;;;0.10;0.10;;;;;;;;;;4850773;29;20101;-93
2021/12/04 02:17:25;;;;;;;0.10;0.10;;;;;;;;;;4850495;29;20071;-93
2021/12/04 02:19:51;;;;;;;0.10;0.10;;;;;;;;;;4850880;29;20153;-95
2021/12/04 02:22:18;;;;;;;0.00;0.00;;;;;;;;;;4850087;29;20053;-95
2021/12/04 02:24:44;;;;;;;0.10;0.10;;;;;;;;;;4850747;29;20048;-95
2021/12/04 02:27:13;;;;;;;0.10;0.10;;;;;;;;;;4850427;29;20045;-95
2021/12/04 02:29:46;;;;;;;0.10;0.10;;;;;;;;;;4850920;29;20052;-93
2021/12/04 02:32:12;;;;;;;0.00;0.00;;;;;;;;;;4851467;29;20045;-94
2021/12/04 02:34:38;;;;;;;0.00;0.00;;;;;;;;;;4850730;29;20077;-95
2021/12/04 02:37:08;;;;;;;0.10;0.10;;;;;;;;;;4850346;29;20453;-95
2021/12/04 02:39:39;;;;;;;0.10;0.10;;;;;;;;;;4851024;29;20092;-95
2021/12/04 02:42:05;;;;;;;0.00;0.00;;;;;;;;;;4850356;29;20041;-96
2021/12/04 02:44:36;;;;;;;0.10;0.10;;;;;;;;;;4850310;29;20097;-94
2021/12/04 02:47:03;;;;;;;0.10;0.10;;;;;;;;;;4850202;29;20080;-92
2021/12/04 02:49:29;;;;;;;0.10;0.10;;;;;;;;;;4850200;29;20040;-91
2021/12/04 02:51:55;;;;;;;0.10;0.10;;;;;;;;;;4849701;29;20105;-94
2021/12/04 02:54:21;;;;;;;0.10;0.10;;;;;;;;;;4850389;29;20100;-95
2021/12/04 02:56:49;;;;;;;0.38;0.10;;;;;;;;;;4850198;29;20055;-95
2021/12/04 02:59:15;;;;;;;0.10;0.10;;;;;;;;;;4850594;29;20041;-95
2021/12/04 03:01:41;;;;;;;0.00;0.00;;;;;;;;;;4850158;29;20140;-94
2021/12/04 03:04:11;;;;;;;0.10;0.10;;;;;;;;;;4850215;29;20045;-94
2021/12/04 03:06:39;;;;;;;0.10;0.10;;;;;;;;;;4850354;29;20397;-94
2021/12/04 03:09:09;;;;;;;0.10;0.10;;;;;;;;;;4850861;29;20041;-96
2021/12/04 03:11:36;;;;;;;0.10;0.10;;;;;;;;;;4850420;29;20108;-96
2021/12/04 03:14:02;;;;;;;0.00;0.00;;;;;;;;;;4850104;29;20135;-95
2021/12/04 03:16:31;;;;;;;0.10;0.10;;;;;;;;;;4850136;29;20060;-95
2021/12/04 03:18:58;;;;;;;0.10;0.10;;;;;;;;;;4850430;29;20145;-96
2021/12/04 03:21:24;;;;;;;0.10;0.10;;;;;;;;;;4864978;29;20063;-96
2021/12/04 03:24:02;;;;;;;0.10;0.10;;;;;;;;;;4849203;29;20044;-95
2021/12/04 03:26:28;;;;;;;0.10;0.10;;;;;;;;;;4850947;29;20485;-95
2021/12/04 03:28:56;;;;;;;0.10;0.10;;;;;;;;;;4849939;29;20052;-92
2021/12/04 03:31:56;;;;;;;0.10;0.10;;;;;;;;;;4849340;29;20049;-95
2021/12/04 03:42:35;;;;;;;0.10;0.10;;;;;;;;;;4880395;29;20053;-95
2021/12/04 03:45:01;;;;;;;0.10;0.10;;;;;;;;;;4849376;29;20064;-95
2021/12/04 03:47:29;;;;;;;0.10;0.10;;;;;;;;;;4849583;29;20051;-94
2021/12/04 03:49:56;;;;;;;0.10;0.10;;;;;;;;;;4849114;29;20569;-95
2021/12/04 03:52:22;;;;;;;0.00;0.00;;;;;;;;;;4848934;29;20052;-95
2021/12/04 03:54:48;;;;;;;0.05;0.05;;;;;;;;;;4849259;29;20129;-95
2021/12/04 03:57:14;;;;;;;0.10;0.10;;;;;;;;;;4849194;29;20048;-94
2021/12/04 03:59:41;;;;;;;0.05;0.05;;;;;;;;;;4864502;29;20056;-91
2021/12/04 04:02:08;;;;;;;0.47;0.38;;;;;;;;;;4848979;29;20044;-93
2021/12/04 04:04:34;;;;;;;0.10;0.10;;;;;;;;;;4863877;29;20045;-92
2021/12/04 04:07:00;;;;;;;0.00;0.00;;;;;;;;;;4848691;29;20580;-94
2021/12/04 04:09:26;;;;;;;0.10;0.10;;;;;;;;;;4848535;29;20112;-92
2021/12/04 04:11:53;;;;;;;0.10;0.10;;;;;;;;;;4849189;29;20394;-93
2021/12/04 04:14:22;;;;;;;0.00;0.00;;;;;;;;;;4849022;29;20041;-93
2021/12/04 04:16:49;;;;;;;0.10;0.10;;;;;;;;;;4848974;29;20389;-91
2021/12/04 04:19:15;;;;;;;0.10;0.10;;;;;;;;;;4848577;29;20067;-92
2021/12/04 04:21:43;;;;;;;0.10;0.10;;;;;;;;;;4862460;29;20057;-96
2021/12/04 04:24:10;;;;;;;0.00;0.00;;;;;;;;;;4848494;29;20123;-93
2021/12/04 04:26:36;;;;;;;0.05;0.05;;;;;;;;;;4848728;29;20059;-93
2021/12/04 04:29:03;;;;;;;0.00;0.00;;;;;;;;;;4848743;29;20131;-94
2021/12/04 04:31:30;;;;;;;0.00;0.00;;;;;;;;;;4848742;29;20041;-93
2021/12/04 04:34:04;;;;;;;0.10;0.10;;;;;;;;;;4847699;29;20135;-93
2021/12/04 05:12:22;;;;;;;0.08;0.08;;;;;;;;;;4830349;29;20140;-92
2021/12/04 05:14:54;;;;;;;0.10;0.10;;;;;;;;;;4850069;29;20140;-92
2021/12/04 05:17:42;;;;;;;0.10;0.10;;;;;;;;;;4863838;29;20506;-93
2021/12/04 05:20:10;;;;;;;0.10;0.10;;;;;;;;;;4850451;29;20133;-93
2021/12/04 05:22:37;;;;;;;0.10;0.10;;;;;;;;;;4847393;29;20049;-93
2021/12/04 05:25:04;;;;;;;0.10;0.10;;;;;;;;;;4847378;29;20128;-92
2021/12/04 05:27:30;;;;;;;0.10;0.10;;;;;;;;;;4862414;29;20045;-93
2021/12/04 05:29:56;;;;;;;0.10;0.10;;;;;;;;;;4847735;29;20338;-95
2021/12/04 05:32:22;;;;;;;0.10;0.10;;;;;;;;;;4847340;29;20055;-95
2021/12/04 05:34:53;;;;;;;0.10;0.10;;;;;;;;;;4847340;29;20052;-96
2021/12/04 05:37:19;;;;;;;0.10;0.10;;;;;;;;;;4847922;29;20516;-94
2021/12/04 05:39:46;;;;;;;0.00;0.00;;;;;;;;;;4847372;29;20077;-94
2021/12/04 05:42:12;;;;;;;0.20;0.20;;;;;;;;;;4847906;29;20072;-94
2021/12/04 05:44:39;;;;;;;0.10;0.10;;;;;;;;;;4847373;29;20037;-93
2021/12/04 05:47:21;;;;;;;0.10;0.10;;;;;;;;;;4847145;29;20041;-93
2021/12/04 05:49:56;;;;;;;0.10;0.10;;;;;;;;;;4849116;29;20041;-93
2021/12/04 05:52:52;;;;;;;0.10;0.10;;;;;;;;;;4848656;29;20666;-93
2021/12/04 05:55:20;;;;;;;0.10;0.10;;;;;;;;;;4850543;29;20045;-92
2021/12/04 05:57:46;;;;;;;0.00;0.00;;;;;;;;;;4847514;29;20397;-94
2021/12/04 06:00:22;;;;;;;0.10;0.10;;;;;;;;;;4847179;29;20051;-93
2021/12/04 06:02:48;;;;;;;0.55;0.13;;;;;;;;;;4847381;29;20132;-94
2021/12/04 06:05:14;;;;;;;0.10;0.10;;;;;;;;;;4847123;29;20104;-92
2021/12/04 06:07:40;;;;;;;0.10;0.10;;;;;;;;;;4847028;29;20049;-94
2021/12/04 06:10:07;;;;;;;0.10;0.10;;;;;;;;;;4847159;29;20060;-93
2021/12/04 06:12:33;;;;;;;0.10;0.10;;;;;;;;;;4847155;29;20049;-93
2021/12/04 06:14:59;;;;;;;0.10;0.10;;;;;;;;;;4846983;29;20067;-92
2021/12/04 06:17:25;;;;;;;0.10;0.10;;;;;;;;;;4846827;29;20135;-93
2021/12/04 06:22:40;;;;;;;0.10;0.10;;;;;;;;;;4863778;29;20049;-93
2021/12/04 06:25:16;;;;;;;0.03;0.03;;;;;;;;;;4847699;29;20033;-94
2021/12/04 06:27:46;;;;;;;0.00;0.00;;;;;;;;;;4846516;29;20533;-93
2021/12/04 06:30:38;;;;;;;0.10;0.10;;;;;;;;;;4847060;29;20049;-94
2021/12/04 06:33:04;;;;;;;0.00;0.00;;;;;;;;;;4862255;29;20231;-92
2021/12/04 06:35:32;;;;;;;0.00;0.00;;;;;;;;;;4846786;29;20053;-91
2021/12/04 06:37:58;;;;;;;0.20;0.10;;;;;;;;;;4862382;29;20450;-91
2021/12/04 06:40:26;;;;;;;0.00;0.00;;;;;;;;;;4846022;29;20097;-90
2021/12/04 06:42:53;;;;;;;0.00;0.00;;;;;;;;;;4846487;29;20074;-90
2021/12/04 06:45:19;;;;;;;0.20;0.20;;;;;;;;;;4846629;29;20041;-89
2021/12/04 06:47:54;;;;;;;0.10;0.10;;;;;;;;;;4861246;29;20037;-90
2021/12/04 06:50:30;;;;;;;0.10;0.10;;;;;;;;;;4847026;29;20084;-90
2021/12/04 06:53:04;;;;;;;3.08;0.65;;;;;;;;;;4848434;29;20049;-88
2021/12/04 06:55:37;;;;;;;0.10;0.10;;;;;;;;;;4860967;29;20049;-87
2021/12/04 06:58:03;;;;;;;0.10;0.10;;;;;;;;;;4848642;29;20052;-90
2021/12/04 07:00:30;;;;;;;0.10;0.10;;;;;;;;;;4864998;29;20135;-90
2021/12/04 07:02:56;;;;;;;0.10;0.10;;;;;;;;;;4849810;29;20051;-90
2021/12/04 07:05:22;;;;;;;0.10;0.10;;;;;;;;;;4880301;29;20056;-90
2021/12/04 07:07:48;;;;;;;0.10;0.10;;;;;;;;;;4864928;29;20057;-90
2021/12/04 07:10:14;;;;;;;0.10;0.10;;;;;;;;;;4849478;29;20482;-90
2021/12/04 07:12:40;;;;;;;0.10;0.10;;;;;;;;;;4849383;29;20048;-90
2021/12/04 07:15:07;;;;;;;0.00;0.00;;;;;;;;;;4849589;29;20052;-90
2021/12/04 07:17:35;;;;;;;0.00;0.00;;;;;;;;;;4849328;29;20049;-90
2021/12/04 07:20:01;;;;;;;0.03;0.03;;;;;;;;;;4849512;29;20462;-90
2021/12/04 07:22:27;;;;;;;0.10;0.10;;;;;;;;;;4864609;29;20056;-90
2021/12/04 07:24:53;;;;;;;0.10;0.10;;;;;;;;;;4864592;29;20104;-90
2021/12/04 07:27:19;;;;;;;0.10;0.10;;;;;;;;;;4864576;29;20136;-89
2021/12/04 07:29:45;;;;;;;0.10;0.10;;;;;;;;;;4849489;29;20411;-90
2021/12/04 07:32:11;;;;;;;0.00;0.00;;;;;;;;;;4848941;29;20121;-90
2021/12/04 07:34:37;;;;;;;0.10;0.10;;;;;;;;;;4849066;29;20045;-91
2021/12/04 07:37:03;;;;;;;0.03;0.03;;;;;;;;;;4864550;29;20045;-90
2021/12/04 07:39:33;;;;;;;0.00;0.00;;;;;;;;;;4865054;29;20088;-90
2021/12/04 07:41:59;;;;;;;0.10;0.10;;;;;;;;;;4849429;29;20085;-90
2021/12/04 07:44:27;;;;;;;0.08;0.08;;;;;;;;;;4848897;29;20490;-90
2021/12/04 07:46:53;;;;;;;0.10;0.10;;;;;;;;;;4849190;29;20441;-90
2021/12/04 07:49:19;;;;;;;0.10;0.10;;;;;;;;;;4848986;29;20101;-90
2021/12/04 07:51:47;;;;;;;0.10;0.10;;;;;;;;;;4864236;29;20213;-90
2021/12/04 07:54:13;;;;;;;0.10;0.10;;;;;;;;;;4849142;29;20069;-90
2021/12/04 07:56:39;;;;;;;0.00;0.00;;;;;;;;;;4864248;29;20045;-90
2021/12/04 07:59:05;;;;;;;0.10;0.10;;;;;;;;;;4848605;29;20049;-90
2021/12/04 08:01:31;;;;;;;0.10;0.10;;;;;;;;;;4848584;29;20056;-90
2021/12/04 08:03:57;;;;;;;1.10;0.30;;;;;;;;;;4863883;29;20092;-90
2021/12/04 08:06:22;;;;;;;0.10;0.10;;;;;;;;;;4848404;29;20044;-90
2021/12/04 08:08:48;;;;;;;0.10;0.10;;;;;;;;;;4847894;29;20097;-90
2021/12/04 08:11:14;;;;;;;0.10;0.10;;;;;;;;;;4848441;29;20049;-90
2021/12/04 08:13:41;;;;;;;0.10;0.10;;;;;;;;;;4848946;29;20052;-90
2021/12/04 08:16:10;;;;;;;0.00;0.00;;;;;;;;;;4848750;29;20049;-90
2021/12/04 08:18:36;;;;;;;0.10;0.10;;;;;;;;;;4863466;29;20131;-90
2021/12/04 08:21:02;;;;;;;0.00;0.00;;;;;;;;;;4847935;29;20068;-90
2021/12/04 08:23:28;;;;;;;0.10;0.10;;;;;;;;;;4848425;29;20131;-90
2021/12/04 08:25:56;;;;;;;0.10;0.10;;;;;;;;;;4848092;29;20080;-90
2021/12/04 08:28:22;;;;;;;0.10;0.10;;;;;;;;;;4848420;29;20052;-90
2021/12/04 08:30:49;;;;;;;0.05;0.05;;;;;;;;;;4849363;29;20068;-91
2021/12/04 08:33:15;;;;;;;0.10;0.10;;;;;;;;;;4866830;29;20538;-90
2021/12/04 08:35:41;;;;;;;0.10;0.10;;;;;;;;;;4866100;29;20049;-90
2021/12/04 08:38:08;;;;;;;0.45;0.38;;;;;;;;;;4850705;29;20044;-90
2021/12/04 08:40:34;;;;;;;0.10;0.10;;;;;;;;;;4850949;29;20113;-90
2021/12/04 08:43:01;;;;;;;0.10;0.10;;;;;;;;;;4850799;29;20045;-90
2021/12/04 08:45:27;;;;;;;0.00;0.00;;;;;;;;;;4866181;29;20609;-90
2021/12/04 08:47:53;;;;;;;0.00;0.00;;;;;;;;;;4850969;29;20104;-91
2021/12/04 08:50:22;;;;;;;0.10;0.10;;;;;;;;;;4850739;29;20482;-90
2021/12/04 08:52:48;;;;;;;0.10;0.10;;;;;;;;;;4851736;29;20052;-90
2021/12/04 08:55:14;;;;;;;0.10;0.10;;;;;;;;;;4868757;29;20060;-90
2021/12/04 08:57:40;;;;;;;0.10;0.10;;;;;;;;;;4870008;29;20049;-90
2021/12/04 09:00:10;;;;;;;0.00;0.00;;;;;;;;;;4866836;29;20060;-90
2021/12/04 09:02:37;;;;;;;0.10;0.10;;;;;;;;;;4870320;29;20057;-89
2021/12/04 09:05:15;;;;;;;;;;;;;;;;;;;;;
2021/12/04 09:07:41;;;;;;;0.10;0.10;;;;;;;;;;4878272;29;20049;-91
2021/12/04 09:10:08;;;;;;;0.05;0.05;;;;;;;;;;4863097;29;20076;-90
2021/12/04 09:12:34;;;;;;;0.10;0.10;;;;;;;;;;4863478;29;20045;-90
2021/12/04 09:15:00;;;;;;;0.05;0.05;;;;;;;;;;4862923;29;20041;-91
2021/12/04 09:17:26;;;;;;;0.10;0.10;;;;;;;;;;4847351;29;20044;-91
2021/12/04 09:19:52;;;;;;;0.10;0.10;;;;;;;;;;4862885;29;20041;-90
2021/12/04 09:22:26;;;;;;;0.00;0.00;;;;;;;;;;4847274;29;20061;-91
2021/12/04 09:24:58;;;;;;;0.10;0.10;;;;;;;;;;4848743;29;20049;-90
2021/12/04 09:30:57;;;;;;;0.10;0.10;;;;;;;;;;4864984;29;20049;-90
2021/12/04 10:00:46;;;;;;;0.10;0.10;;;;;;;;;;4864604;29;20574;-90
2021/12/04 10:03:40;;;;;;;0.00;0.00;;;;;;;;;;4865203;29;20481;-90
2021/12/04 10:22:25;;;;;;;0.00;0.00;;;;;;;;;;4862960;29;20490;-90
2021/12/04 10:32:01;;;;;;;0.05;0.05;;;;;;;;;;4863157;29;20045;-90
2021/12/04 10:33:26;;;;;;;0.10;0.10;;;;;;;;;;4866973;29;20049;-90
2021/12/04 10:35:53;;;;;;;0.40;0.40;;;;;;;;;;4866165;29;20055;-90
2021/12/04 10:38:31;;;;;;;0.10;0.10;;;;;;;;;;4866153;29;20061;-89
2021/12/04 10:40:57;;;;;;;0.30;0.30;;;;;;;;;;4865525;29;20506;-90
2021/12/04 10:43:24;;;;;;;0.10;0.10;;;;;;;;;;4849847;29;20070;-90
2021/12/04 10:45:53;;;;;;;0.10;0.10;;;;;;;;;;4865643;29;20055;-91
2021/12/04 10:48:22;;;;;;;0.10;0.10;;;;;;;;;;4850349;29;20100;-91
2021/12/04 10:51:02;;;;;;;0.10;0.10;;;;;;;;;;4865396;29;20052;-91
2021/12/04 10:53:30;;;;;;;0.00;0.00;;;;;;;;;;4851592;29;20490;-90
2021/12/04 11:04:09;;;;;;;0.10;0.10;;;;;;;;;;4880728;29;20071;-90
2021/12/04 11:20:50;;;;;;;0.10;0.10;;;;;;;;;;4867048;29;20386;-90
2021/12/04 11:39:26;;;;;;;0.00;0.00;;;;;;;;;;4847869;29;20056;-90
2021/12/04 11:44:27;;;;;;;0.00;0.00;;;;;;;;;;4864333;29;20053;-90
2021/12/04 11:46:56;;;;;;;0.00;0.00;;;;;;;;;;4864128;29;20236;-90
2021/12/04 11:49:24;;;;;;;0.00;0.00;;;;;;;;;;4849026;29;20041;-91
2021/12/04 11:51:56;;;;;;;0.00;0.00;;;;;;;;;;4849074;29;20104;-90
2021/12/04 11:54:23;;;;;;;0.10;0.10;;;;;;;;;;4849290;29;20048;-90
2021/12/04 11:57:09;;;;;;;2.60;0.20;;;;;;;;;;4848933;29;20045;-90
2021/12/04 11:59:36;;;;;;;0.10;0.10;;;;;;;;;;4879530;29;20151;-89
2021/12/04 12:02:02;;;;;;;0.90;0.20;;;;;;;;;;4863894;29;20048;-90
2021/12/04 12:04:38;;;;;;;0.10;0.10;;;;;;;;;;4848892;29;20056;-90
2021/12/04 12:07:16;;;;;;;0.10;0.10;;;;;;;;;;4848535;29;20498;-90
2021/12/04 12:09:42;;;;;;;0.10;0.10;;;;;;;;;;4863754;29;20068;-90
2021/12/04 12:12:12;;;;;;;0.10;0.10;;;;;;;;;;4848256;29;20060;-90
2021/12/04 12:14:47;;;;;;;0.08;0.08;;;;;;;;;;4848748;29;20189;-90
2021/12/04 12:17:13;;;;;;;0.20;0.20;;;;;;;;;;4848830;29;20049;-90
2021/12/04 12:19:41;;;;;;;0.45;0.20;;;;;;;;;;4848336;29;20065;-90
2021/12/04 12:22:19;;;;;;;0.10;0.10;;;;;;;;;;4863477;29;20057;-90
2021/12/04 12:32:49;;;;;;;0.10;0.10;;;;;;;;;;4878900;29;20049;-90
2021/12/04 12:37:49;;;;;;;1.25;1.02;;;;;;;;;;4863171;29;20117;-90
2021/12/04 12:40:16;;;;;;;0.10;0.10;;;;;;;;;;4847924;29;20052;-90
2021/12/04 12:42:42;;;;;;;0.10;0.10;;;;;;;;;;4848427;29;20397;-90
2021/12/04 12:45:15;;;;;;;0.40;0.40;;;;;;;;;;4848108;29;20049;-91
2021/12/04 12:47:49;;;;;;;0.00;0.00;;;;;;;;;;4863026;29;20044;-90
2021/12/04 12:50:25;;;;;;;0.10;0.10;;;;;;;;;;4878892;29;20060;-91
2021/12/04 12:52:58;;;;;;;0.00;0.00;;;;;;;;;;4863459;29;20405;-90
2021/12/04 12:55:31;;;;;;;0.10;0.10;;;;;;;;;;4847088;29;20056;-90
2021/12/04 12:57:58;;;;;;;0.13;0.13;;;;;;;;;;4848348;29;20129;-90
2021/12/04 13:13:53;;;;;;;0.10;0.10;;;;;;;;;;4878075;29;20143;-90
2021/12/04 13:16:19;;;;;;;0.10;0.10;;;;;;;;;;4847369;29;20076;-90
2021/12/04 13:18:59;;;;;;;0.10;0.10;;;;;;;;;;4862371;29;20041;-90
2021/12/04 13:21:25;;;;;;;0.22;0.22;;;;;;;;;;4847356;29;20052;-90
2021/12/04 13:23:52;;;;;;;0.30;0.30;;;;;;;;;;4847140;29;20049;-90
2021/12/04 13:26:18;;;;;;;0.00;0.00;;;;;;;;;;4847399;29;20391;-90
2021/12/04 13:28:47;;;;;;;0.10;0.10;;;;;;;;;;4847427;29;20056;-90
2021/12/04 13:31:13;;;;;;;1.73;0.55;;;;;;;;;;4847969;29;20041;-90
2021/12/04 13:33:40;;;;;;;0.10;0.10;;;;;;;;;;4850474;29;20093;-90
2021/12/04 13:36:13;;;;;;;0.10;0.10;;;;;;;;;;4868066;29;20108;-90
2021/12/04 13:38:42;;;;;;;0.10;0.10;;;;;;;;;;4861673;29;20052;-90
2021/12/04 13:41:08;;;;;;;0.10;0.10;;;;;;;;;;4861548;29;20127;-90
2021/12/04 13:43:34;;;;;;;0.03;0.03;;;;;;;;;;4875696;29;20041;-90
2021/12/04 13:46:00;;;;;;;0.47;0.20;;;;;;;;;;4863115;29;20059;-90
2021/12/04 13:48:27;;;;;;;0.08;0.08;;;;;;;;;;4846987;29;20051;-90
2021/12/04 13:50:55;;;;;;;0.10;0.10;;;;;;;;;;4846607;29;20052;-90
2021/12/04 13:53:26;;;;;;;0.10;0.10;;;;;;;;;;4846676;29;20045;-90
2021/12/04 13:55:54;;;;;;;0.10;0.10;;;;;;;;;;4847164;29;20045;-90
2021/12/04 13:58:20;;;;;;;0.10;0.10;;;;;;;;;;4846640;29;20041;-90
2021/12/04 14:00:46;;;;;;;0.00;0.00;;;;;;;;;;4846708;29;20534;-90
2021/12/04 14:03:12;;;;;;;0.10;0.10;;;;;;;;;;4862334;29;20041;-90
2021/12/04 14:05:38;;;;;;;0.32;0.32;;;;;;;;;;4846549;29;20041;-90
2021/12/04 14:08:05;;;;;;;0.10;0.10;;;;;;;;;;4846603;29;20041;-90
2021/12/04 14:10:37;;;;;;;0.10;0.10;;;;;;;;;;4846521;29;20156;-90
2021/12/04 14:13:04;;;;;;;0.10;0.10;;;;;;;;;;4862128;29;20078;-90
2021/12/04 14:15:30;;;;;;;0.00;0.00;;;;;;;;;;4846913;29;20051;-90
2021/12/04 14:18:04;;;;;;;0.10;0.10;;;;;;;;;;4847437;29;20052;-90
2021/12/04 14:20:30;;;;;;;0.00;0.00;;;;;;;;;;4876926;29;21390;-90
2021/12/04 14:22:56;;;;;;;1.65;0.90;;;;;;;;;;4846632;29;20064;-90
2021/12/04 14:25:23;;;;;;;0.03;0.03;;;;;;;;;;4846583;29;20088;-90
2021/12/04 14:27:49;;;;;;;0.10;0.10;;;;;;;;;;4846542;29;20049;-90
2021/12/04 14:30:16;;;;;;;0.10;0.10;;;;;;;;;;4861971;29;20052;-90
2021/12/04 14:32:45;;;;;;;0.10;0.10;;;;;;;;;;4861701;29;20565;-90
2021/12/04 14:35:15;;;;;;;0.00;0.00;;;;;;;;;;4846890;29;20045;-90
2021/12/04 14:37:41;;;;;;;0.10;0.10;;;;;;;;;;4846759;29;20037;-90
2021/12/04 14:40:08;;;;;;;0.10;0.10;;;;;;;;;;4846127;29;20041;-91
2021/12/04 14:42:36;;;;;;;0.10;0.10;;;;;;;;;;4846823;29;20041;-91
2021/12/04 14:45:04;;;;;;;0.00;0.00;;;;;;;;;;4846646;29;20048;-91
2021/12/04 14:47:31;;;;;;;0.10;0.10;;;;;;;;;;4861677;29;20041;-91
2021/12/04 14:50:00;;;;;;;0.10;0.10;;;;;;;;;;4846696;29;20383;-91
2021/12/04 14:52:27;;;;;;;0.10;0.10;;;;;;;;;;4846624;29;20045;-91
2021/12/04 14:54:53;;;;;;;0.10;0.10;;;;;;;;;;4861652;29;20088;-90
2021/12/04 14:57:23;;;;;;;0.10;0.10;;;;;;;;;;4846143;29;20213;-91
2021/12/04 15:00:11;;;;;;;0.10;0.10;;;;;;;;;;4846810;29;20490;-91
2021/12/04 15:02:37;;;;;;;0.10;0.10;;;;;;;;;;4877125;29;20410;-91
2021/12/04 15:05:03;;;;;;;0.00;0.00;;;;;;;;;;4846229;29;20052;-91
2021/12/04 15:07:31;;;;;;;0.10;0.10;;;;;;;;;;4846110;29;20132;-91
2021/12/04 15:09:57;;;;;;;0.10;0.10;;;;;;;;;;4846216;29;20049;-91
2021/12/04 15:12:24;;;;;;;0.08;0.08;;;;;;;;;;4845863;29;20490;-90
2021/12/04 15:14:54;;;;;;;0.10;0.10;;;;;;;;;;4846043;29;20053;-91
2021/12/04 15:17:20;;;;;;;0.10;0.10;;;;;;;;;;4845908;29;20236;-90
2021/12/04 15:19:47;;;;;;;0.10;0.10;;;;;;;;;;4863201;29;20053;-90
2021/12/04 15:22:21;;;;;;;0.10;0.10;;;;;;;;;;4848680;29;20052;-86
2021/12/04 15:24:48;;;;;;;0.10;0.10;;;;;;;;;;4849227;29;20077;-91
2021/12/04 15:27:16;;;;;;;0.08;0.08;;;;;;;;;;4848950;29;20060;-88
2021/12/04 15:29:47;;;;;;;0.10;0.10;;;;;;;;;;4864960;29;20056;-93
2021/12/04 15:32:13;;;;;;;0.10;0.10;;;;;;;;;;4849830;29;20224;-92
2021/12/04 15:34:50;;;;;;;0.10;0.10;;;;;;;;;;4849177;29;20054;-93
2021/12/04 15:37:25;;;;;;;0.10;0.10;;;;;;;;;;4850059;29;20040;-91
2021/12/04 15:39:51;;;;;;;0.10;0.10;;;;;;;;;;4864332;29;20169;-93
2021/12/04 15:42:26;;;;;;;0.10;0.10;;;;;;;;;;4849255;29;20053;-92
2021/12/04 15:45:05;;;;;;;0.10;0.10;;;;;;;;;;4850127;29;20112;-92
2021/12/04 15:47:49;;;;;;;0.10;0.10;;;;;;;;;;4850249;29;20108;-90
2021/12/04 15:50:28;;;;;;;0.10;0.10;;;;;;;;;;4851000;29;20132;-92
2021/12/04 15:55:36;;;;;;;0.10;0.10;;;;;;;;;;4864813;29;20477;-92
2021/12/04 15:58:06;;;;;;;0.20;0.20;;;;;;;;;;4848801;29;20044;-91
2021/12/04 16:00:32;;;;;;;0.25;0.25;;;;;;;;;;4848484;29;20063;-91
2021/12/04 16:03:01;;;;;;;0.10;0.10;;;;;;;;;;4849212;29;20377;-91
2021/12/04 16:05:29;;;;;;;0.10;0.10;;;;;;;;;;4848409;29;20041;-92
2021/12/04 16:08:07;;;;;;;0.15;0.10;;;;;;;;;;4879041;29;20052;-91
2021/12/04 16:10:37;;;;;;;0.00;0.00;;;;;;;;;;4863264;29;20108;-93
2021/12/04 16:13:03;;;;;;;0.10;0.10;;;;;;;;;;4848213;29;20088;-90
2021/12/04 16:15:29;;;;;;;0.10;0.10;;;;;;;;;;4848012;29;20041;-89
2021/12/04 16:17:55;;;;;;;0.08;0.08;;;;;;;;;;4863138;29;20045;-90
2021/12/04 16:20:22;;;;;;;0.10;0.10;;;;;;;;;;4847630;29;20053;-90
2021/12/04 16:22:49;;;;;;;0.00;0.00;;;;;;;;;;4863224;29;20096;-88
2021/12/04 16:25:24;;;;;;;0.00;0.00;;;;;;;;;;4847632;29;20037;-89
2021/12/04 16:28:06;;;;;;;0.10;0.10;;;;;;;;;;4863046;29;20045;-88
2021/12/04 16:33:28;;;;;;;0.10;0.10;;;;;;;;;;4863146;29;20052;-88
2021/12/04 16:35:57;;;;;;;0.75;0.68;;;;;;;;;;4851338;29;20052;-89
2021/12/04 16:38:23;;;;;;;0.00;0.00;;;;;;;;;;4848090;29;20044;-88
2021/12/04 16:40:50;;;;;;;0.10;0.10;;;;;;;;;;4847221;29;20064;-90
2021/12/04 16:43:28;;;;;;;0.10;0.10;;;;;;;;;;4847551;29;20096;-88
2021/12/04 16:45:55;;;;;;;0.10;0.10;;;;;;;;;;4864287;29;20072;-89
2021/12/04 16:48:23;;;;;;;0.10;0.10;;;;;;;;;;4847782;29;20045;-88
2021/12/04 16:58:27;;;;;;;0.10;0.10;;;;;;;;;;4862377;29;20080;-88
2021/12/04 17:00:53;;;;;;;0.10;0.10;;;;;;;;;;4862170;29;20057;-89
2021/12/04 17:03:20;;;;;;;0.10;0.10;;;;;;;;;;4862392;29;20045;-88
2021/12/04 17:05:47;;;;;;;0.10;0.10;;;;;;;;;;4862053;29;20067;-88
2021/12/04 17:08:13;;;;;;;0.10;0.10;;;;;;;;;;4846574;29;20033;-88
2021/12/04 17:10:40;;;;;;;0.10;0.10;;;;;;;;;;4862382;29;20495;-88
2021/12/04 17:13:06;;;;;;;0.10;0.10;;;;;;;;;;4862022;29;20045;-88
2021/12/04 17:15:32;;;;;;;0.10;0.10;;;;;;;;;;4846771;29;20045;-88
2021/12/04 17:17:58;;;;;;;0.10;0.10;;;;;;;;;;4861906;29;20123;-88
2021/12/04 17:20:24;;;;;;;0.10;0.10;;;;;;;;;;4846290;29;20037;-89
2021/12/04 17:22:51;;;;;;;0.10;0.10;;;;;;;;;;4846812;29;20049;-88
2021/12/04 17:25:18;;;;;;;0.10;0.10;;;;;;;;;;4846531;29;20419;-89
2021/12/04 17:27:43;;;;;;;0.10;0.10;;;;;;;;;;4846522;29;20056;-88
2021/12/04 17:30:11;;;;;;;0.10;0.10;;;;;;;;;;4846387;29;20481;-88
2021/12/04 17:32:38;;;;;;;0.10;0.10;;;;;;;;;;4846950;29;20044;-91
2021/12/04 17:35:05;;;;;;;0.10;0.10;;;;;;;;;;4862476;29;20508;-92
2021/12/04 17:37:31;;;;;;;0.10;0.10;;;;;;;;;;4862111;29;20132;-90
2021/12/04 17:39:57;;;;;;;0.10;0.10;;;;;;;;;;4846235;29;20042;-90
2021/12/04 17:42:24;;;;;;;0.10;0.10;;;;;;;;;;4846203;29;20320;-89
2021/12/04 17:44:53;;;;;;;0.20;0.20;;;;;;;;;;4846673;29;20132;-90
2021/12/04 17:47:20;;;;;;;0.10;0.10;;;;;;;;;;4846504;29;20131;-92
2021/12/04 17:49:47;;;;;;;0.10;0.10;;;;;;;;;;4847098;29;20048;-91
2021/12/04 17:52:13;;;;;;;0.05;0.05;;;;;;;;;;4846338;29;20049;-89
2021/12/04 17:54:39;;;;;;;0.10;0.10;;;;;;;;;;4861403;29;20500;-87
2021/12/04 17:57:05;;;;;;;0.10;0.10;;;;;;;;;;4846127;29;20049;-91
2021/12/04 17:59:32;;;;;;;0.10;0.10;;;;;;;;;;4846000;29;20049;-88